Time;durP1;ratioP1;P1;durP2;ratioP2;P2;SDS_P1;SDS_P2;PMS_P1;PMS_P2;Temp;Humidity;BMP_temperature;BMP_pressure;BME280_temperature;BME280_humidity;BME280_pressure;Samples;Min_cycle;Max_cycle;Signal;HPM_P1;HPM_P2
2023/08/04 00:02:00;;;;;;;6.30;1.67;;;16.80;99.90;;;;;;5113605;27;20067;-54
2023/08/04 00:04:26;;;;;;;5.80;1.55;;;16.80;99.90;;;;;;5122103;27;20478;-54
2023/08/04 00:06:52;;;;;;;4.93;1.40;;;16.70;99.90;;;;;;5094615;27;20051;-54
2023/08/04 00:09:17;;;;;;;5.80;1.20;;;16.70;99.90;;;;;;5077491;27;20077;-54
2023/08/04 00:11:43;;;;;;;6.18;2.00;;;16.70;99.90;;;;;;5103047;27;20547;-55
2023/08/04 00:14:09;;;;;;;5.60;1.77;;;16.70;99.90;;;;;;5096791;28;20040;-56
2023/08/04 00:16:35;;;;;;;6.20;1.35;;;16.70;99.90;;;;;;5093295;28;20043;-55
2023/08/04 00:19:01;;;;;;;4.90;1.40;;;16.60;99.90;;;;;;5115708;27;20122;-57
2023/08/04 00:21:26;;;;;;;6.75;1.50;;;16.70;99.90;;;;;;5117673;27;20039;-53
2023/08/04 00:23:58;;;;;;;10.27;1.98;;;16.60;99.90;;;;;;5125272;27;20500;-54
2023/08/04 00:26:25;;;;;;;6.28;1.85;;;16.70;99.90;;;;;;5113001;27;20067;-54
2023/08/04 00:28:50;;;;;;;7.20;2.10;;;16.70;99.90;;;;;;5115900;27;20035;-58
2023/08/04 00:31:16;;;;;;;4.60;1.48;;;16.70;99.90;;;;;;5092972;28;20039;-58
2023/08/04 00:33:42;;;;;;;9.38;2.47;;;16.70;99.90;;;;;;5101176;27;20681;-59
2023/08/04 00:36:08;;;;;;;8.13;1.88;;;16.60;99.90;;;;;;5109978;28;20039;-59
2023/08/04 00:38:33;;;;;;;7.20;1.45;;;16.60;99.90;;;;;;5096934;28;20112;-59
2023/08/04 00:40:59;;;;;;;4.35;1.63;;;16.50;99.90;;;;;;5115891;28;20070;-59
2023/08/04 00:43:25;;;;;;;4.57;1.40;;;16.50;99.90;;;;;;5090955;28;20040;-59
2023/08/04 00:45:50;;;;;;;4.15;1.20;;;16.50;99.90;;;;;;5110590;28;20784;-58
2023/08/04 00:48:17;;;;;;;4.20;1.20;;;16.40;99.90;;;;;;5115235;28;20088;-59
2023/08/04 00:50:43;;;;;;;3.35;1.30;;;16.30;99.90;;;;;;5118966;28;20082;-58
2023/08/04 00:53:10;;;;;;;7.53;1.30;;;16.30;99.90;;;;;;5115474;28;20138;-58
2023/08/04 00:55:36;;;;;;;4.80;1.30;;;16.30;99.90;;;;;;5121968;28;20047;-58
2023/08/04 00:58:02;;;;;;;3.95;1.00;;;16.30;99.90;;;;;;5097657;28;20762;-59
2023/08/04 01:00:28;;;;;;;5.75;1.00;;;16.20;99.90;;;;;;5115544;28;20039;-57
2023/08/04 01:02:54;;;;;;;4.47;0.95;;;16.30;99.90;;;;;;5094304;28;20023;-57
2023/08/04 01:05:21;;;;;;;3.13;0.85;;;16.20;99.90;;;;;;5116148;28;20036;-58
2023/08/04 01:08:03;;;;;;;3.65;1.02;;;16.20;99.90;;;;;;5113549;27;20040;-55
2023/08/04 01:10:46;;;;;;;3.70;0.80;;;16.20;99.90;;;;;;5121394;27;20048;-57
2023/08/04 01:13:14;;;;;;;1.25;0.73;;;16.20;99.90;;;;;;5098274;28;20149;-56
2023/08/04 01:15:41;;;;;;;5.90;1.02;;;16.20;99.90;;;;;;5113543;28;20032;-57
2023/08/04 01:18:07;;;;;;;4.57;1.52;;;16.30;99.90;;;;;;5118576;27;20067;-57
2023/08/04 01:20:33;;;;;;;4.22;1.00;;;16.30;99.90;;;;;;5119198;28;20119;-56
2023/08/04 01:22:58;;;;;;;5.78;1.17;;;16.30;99.90;;;;;;5076482;28;20051;-55
2023/08/04 01:25:29;;;;;;;3.80;0.85;;;16.30;99.90;;;;;;5117922;27;20044;-57
2023/08/04 01:28:01;;;;;;;3.85;1.10;;;16.30;99.90;;;;;;5115868;27;20510;-53
2023/08/04 01:30:28;;;;;;;3.10;1.02;;;16.30;99.90;;;;;;5099074;27;20043;-56
2023/08/04 01:32:57;;;;;;;3.10;1.10;;;16.30;99.90;;;;;;5117116;27;20105;-57
2023/08/04 01:35:22;;;;;;;2.42;0.98;;;16.30;99.90;;;;;;5117380;27;20172;-55
2023/08/04 01:37:48;;;;;;;5.32;1.15;;;16.30;99.90;;;;;;5119670;27;20114;-57
2023/08/04 01:40:14;;;;;;;5.70;1.30;;;16.30;99.90;;;;;;5119268;27;20055;-54
2023/08/04 01:42:40;;;;;;;6.78;1.20;;;16.30;99.90;;;;;;5117778;27;20494;-55
2023/08/04 01:45:07;;;;;;;3.85;0.95;;;16.30;99.90;;;;;;5096770;27;20410;-56
2023/08/04 01:47:33;;;;;;;2.97;1.00;;;16.30;99.90;;;;;;5124661;27;20043;-57
2023/08/04 01:49:58;;;;;;;3.75;1.20;;;16.30;99.90;;;;;;5116945;27;20027;-54
2023/08/04 01:52:24;;;;;;;5.90;1.38;;;16.30;99.90;;;;;;5124054;27;20383;-55
2023/08/04 01:54:50;;;;;;;4.40;1.38;;;16.30;99.90;;;;;;5115449;27;20032;-58
2023/08/04 01:57:15;;;;;;;3.97;1.27;;;16.30;99.90;;;;;;5099252;28;20043;-54
2023/08/04 01:59:41;;;;;;;3.78;1.20;;;16.30;99.90;;;;;;5092902;27;20140;-57
2023/08/04 02:02:07;;;;;;;3.92;1.30;;;16.30;99.90;;;;;;5082643;27;20035;-56
2023/08/04 02:04:36;;;;;;;3.55;1.13;;;16.30;99.90;;;;;;5091523;27;20043;-57
2023/08/04 02:07:01;;;;;;;4.85;1.50;;;16.30;99.90;;;;;;5117290;27;20027;-52
2023/08/04 02:09:28;;;;;;;3.80;1.25;;;16.40;99.90;;;;;;5115246;27;20122;-56
2023/08/04 02:11:55;;;;;;;3.45;1.20;;;16.30;99.90;;;;;;5118732;27;20067;-55
2023/08/04 02:14:22;;;;;;;4.10;1.23;;;16.30;99.90;;;;;;5116354;27;20039;-54
2023/08/04 02:16:47;;;;;;;2.83;1.20;;;16.30;99.90;;;;;;5119641;27;20610;-52
2023/08/04 02:19:13;;;;;;;4.45;1.83;;;16.30;99.90;;;;;;5111713;27;20047;-54
2023/08/04 02:21:39;;;;;;;5.15;1.88;;;16.30;99.90;;;;;;5113360;27;20053;-55
2023/08/04 02:24:04;;;;;;;3.97;1.40;;;16.30;99.90;;;;;;5115377;27;20028;-55
2023/08/04 02:26:31;;;;;;;2.05;1.17;;;16.20;99.90;;;;;;5111944;27;20070;-55
2023/08/04 02:28:56;;;;;;;4.30;1.73;;;16.30;99.90;;;;;;5114455;27;20043;-55
2023/08/04 02:31:25;;;;;;;6.80;1.65;;;16.30;99.90;;;;;;5098808;27;20088;-53
2023/08/04 02:33:51;;;;;;;4.20;1.45;;;16.30;99.90;;;;;;5116746;27;20642;-55
2023/08/04 02:36:17;;;;;;;4.13;1.33;;;16.30;99.90;;;;;;5114851;27;20069;-52
2023/08/04 02:38:43;;;;;;;4.00;1.70;;;16.30;99.90;;;;;;5111154;27;20038;-54
2023/08/04 02:41:12;;;;;;;5.00;1.60;;;16.30;99.90;;;;;;5093947;27;20040;-56
2023/08/04 02:43:38;;;;;;;5.00;1.25;;;16.30;99.90;;;;;;5103503;27;20114;-56
2023/08/04 02:46:04;;;;;;;6.43;1.65;;;16.30;99.90;;;;;;5116137;27;20423;-54
2023/08/04 02:48:31;;;;;;;3.45;1.73;;;16.30;99.90;;;;;;5123142;27;20122;-56
2023/08/04 02:51:10;;;;;;;3.70;1.38;;;16.30;99.90;;;;;;5114163;27;20043;-55
2023/08/04 02:53:38;;;;;;;3.65;1.70;;;16.40;99.90;;;;;;5112782;27;20035;-54
2023/08/04 02:56:12;;;;;;;5.65;1.48;;;16.30;99.90;;;;;;5114280;27;20507;-55
2023/08/04 02:58:39;;;;;;;5.80;1.65;;;16.30;99.90;;;;;;5087811;27;20040;-57
2023/08/04 03:01:05;;;;;;;10.15;2.00;;;16.30;99.90;;;;;;5110398;27;20036;-55
2023/08/04 03:03:34;;;;;;;4.28;1.38;;;16.30;99.90;;;;;;5116872;27;20066;-52
2023/08/04 03:06:01;;;;;;;5.90;2.03;;;16.30;99.90;;;;;;5119156;27;20035;-52
2023/08/04 03:08:27;;;;;;;3.35;1.30;;;16.30;99.90;;;;;;5110648;27;20180;-54
2023/08/04 03:10:54;;;;;;;6.15;1.70;;;16.20;99.90;;;;;;5112558;27;20153;-57
2023/08/04 03:13:22;;;;;;;4.88;1.55;;;16.20;99.90;;;;;;5113680;27;20042;-55
2023/08/04 03:15:57;;;;;;;2.75;1.35;;;16.20;99.90;;;;;;5113269;27;20067;-55
2023/08/04 03:18:23;;;;;;;6.85;1.50;;;16.20;99.90;;;;;;5114391;27;20043;-56
2023/08/04 03:20:49;;;;;;;5.55;2.40;;;16.20;99.90;;;;;;5113006;27;20054;-53
2023/08/04 03:23:15;;;;;;;4.22;2.20;;;16.20;99.90;;;;;;5099372;27;20039;-54
2023/08/04 03:25:41;;;;;;;5.53;1.48;;;16.20;99.90;;;;;;5117865;27;20042;-54
2023/08/04 03:28:10;;;;;;;7.57;2.00;;;16.10;99.90;;;;;;5106781;27;20120;-57
2023/08/04 03:30:35;;;;;;;5.53;1.98;;;16.10;99.90;;;;;;5110712;27;20071;-52
2023/08/04 03:33:01;;;;;;;6.55;1.98;;;16.10;99.90;;;;;;5107867;27;20043;-55
2023/08/04 03:35:27;;;;;;;5.15;1.85;;;16.10;99.90;;;;;;5096112;27;20391;-54
2023/08/04 03:37:53;;;;;;;4.90;1.90;;;16.10;99.90;;;;;;5114120;27;20074;-57
2023/08/04 03:40:18;;;;;;;4.50;1.80;;;16.10;99.90;;;;;;5118985;27;20034;-54
2023/08/04 03:42:44;;;;;;;7.68;2.22;;;16.20;99.90;;;;;;5112844;27;20622;-52
2023/08/04 03:45:10;;;;;;;5.15;2.20;;;16.10;99.90;;;;;;5094748;28;20038;-52
2023/08/04 03:47:36;;;;;;;5.50;2.65;;;16.00;99.90;;;;;;5091610;27;20073;-56
2023/08/04 03:50:06;;;;;;;7.85;2.50;;;16.10;99.90;;;;;;5093001;27;20118;-56
2023/08/04 03:52:32;;;;;;;5.07;2.10;;;16.00;99.90;;;;;;5078709;28;20087;-57
2023/08/04 03:54:58;;;;;;;8.75;3.17;;;16.00;99.90;;;;;;5109526;27;20103;-53
2023/08/04 03:57:23;;;;;;;8.75;2.47;;;16.00;99.90;;;;;;5112103;27;20049;-58
2023/08/04 03:59:51;;;;;;;5.93;2.00;;;16.10;99.90;;;;;;5115173;27;20035;-56
2023/08/04 04:02:16;;;;;;;7.57;2.72;;;16.10;99.90;;;;;;5091454;28;20044;-55
2023/08/04 04:04:42;;;;;;;6.32;2.42;;;16.10;99.90;;;;;;5096329;27;20379;-51
2023/08/04 04:07:08;;;;;;;7.05;2.35;;;16.10;99.90;;;;;;5084243;27;20051;-54
2023/08/04 04:09:33;;;;;;;4.90;2.42;;;16.10;99.90;;;;;;5093824;27;20043;-54
2023/08/04 04:11:59;;;;;;;5.85;2.42;;;16.10;99.90;;;;;;5115997;27;20044;-53
2023/08/04 04:14:25;;;;;;;5.68;2.83;;;16.10;99.90;;;;;;5115432;27;20083;-53
2023/08/04 04:16:51;;;;;;;5.72;2.85;;;16.10;99.90;;;;;;5110063;27;20046;-55
2023/08/04 04:19:16;;;;;;;7.15;2.90;;;16.20;99.90;;;;;;5092327;28;20067;-53
2023/08/04 04:21:45;;;;;;;4.97;2.20;;;16.10;99.90;;;;;;5119174;27;20032;-58
2023/08/04 04:24:10;;;;;;;7.07;2.85;;;16.10;99.90;;;;;;5076695;28;20047;-54
2023/08/04 04:26:36;;;;;;;3.97;2.10;;;16.10;99.90;;;;;;5117334;27;20035;-54
2023/08/04 04:29:02;;;;;;;12.57;2.92;;;16.10;99.90;;;;;;5108630;27;20564;-55
2023/08/04 04:31:28;;;;;;;10.48;2.97;;;16.10;99.90;;;;;;5088550;27;20042;-58
2023/08/04 04:33:53;;;;;;;6.13;2.65;;;16.10;99.90;;;;;;5113375;27;20390;-56
2023/08/04 04:36:19;;;;;;;6.43;2.47;;;16.10;99.90;;;;;;5101019;28;20597;-55
2023/08/04 04:38:45;;;;;;;6.55;2.72;;;16.10;99.90;;;;;;5091626;28;20048;-57
2023/08/04 04:41:10;;;;;;;4.65;2.10;;;16.10;99.90;;;;;;5104189;28;20649;-54
2023/08/04 04:43:37;;;;;;;6.25;2.40;;;16.20;99.90;;;;;;5113835;28;20042;-54
2023/08/04 04:46:03;;;;;;;7.22;2.20;;;16.20;99.90;;;;;;5079118;28;20096;-54
2023/08/04 04:48:29;;;;;;;5.93;2.38;;;16.20;99.90;;;;;;5094373;28;20114;-54
2023/08/04 04:50:55;;;;;;;6.65;2.53;;;16.20;99.90;;;;;;5092956;28;20498;-56
2023/08/04 04:53:21;;;;;;;4.63;2.55;;;16.20;99.90;;;;;;5114550;27;20043;-54
2023/08/04 04:55:46;;;;;;;7.38;2.83;;;16.30;99.90;;;;;;5113912;28;20047;-52
2023/08/04 04:58:12;;;;;;;6.05;2.60;;;16.30;99.90;;;;;;5100159;28;20031;-54
2023/08/04 05:00:38;;;;;;;5.10;2.05;;;16.40;99.90;;;;;;5097504;27;20047;-56
2023/08/04 05:03:06;;;;;;;8.40;2.38;;;16.40;99.90;;;;;;5121983;27;20027;-54
2023/08/04 05:05:35;;;;;;;3.38;2.08;;;16.50;99.90;;;;;;5099900;28;20043;-57
2023/08/04 05:08:01;;;;;;;7.18;2.20;;;16.50;99.90;;;;;;5114926;27;20453;-55
2023/08/04 05:10:27;;;;;;;4.88;2.20;;;16.50;99.90;;;;;;5085683;27;20088;-55
2023/08/04 05:12:56;;;;;;;7.63;2.67;;;16.50;99.90;;;;;;5119389;27;20482;-54
2023/08/04 05:15:21;;;;;;;5.50;2.38;;;16.60;99.90;;;;;;5120692;27;20139;-55
2023/08/04 05:17:47;;;;;;;4.65;2.63;;;16.60;99.90;;;;;;5112993;27;20126;-53
2023/08/04 05:20:13;;;;;;;8.02;2.78;;;16.60;99.90;;;;;;5074849;28;20063;-55
2023/08/04 05:22:43;;;;;;;3.85;2.20;;;16.60;99.90;;;;;;5117357;27;20111;-54
2023/08/04 05:25:09;;;;;;;5.18;2.40;;;16.60;99.90;;;;;;5112033;27;20027;-56
2023/08/04 05:27:35;;;;;;;5.22;2.20;;;16.60;99.90;;;;;;5112428;27;20035;-58
2023/08/04 05:30:03;;;;;;;5.88;2.22;;;16.60;99.90;;;;;;5116003;27;20406;-54
2023/08/04 05:32:29;;;;;;;4.75;1.92;;;16.70;99.90;;;;;;5096338;27;20047;-52
2023/08/04 05:34:55;;;;;;;3.25;1.88;;;16.60;99.90;;;;;;5113586;27;20058;-56
2023/08/04 05:37:21;;;;;;;4.28;2.15;;;16.60;99.90;;;;;;5119955;27;20118;-54
2023/08/04 05:39:46;;;;;;;4.10;2.10;;;16.70;99.90;;;;;;5098505;28;20038;-56
2023/08/04 05:42:12;;;;;;;5.78;2.03;;;16.70;99.90;;;;;;5077182;27;22457;-55
2023/08/04 05:44:40;;;;;;;6.28;2.10;;;16.70;99.90;;;;;;5090831;27;20043;-55
2023/08/04 05:47:07;;;;;;;3.40;2.00;;;16.70;99.90;;;;;;5120296;27;20036;-56
2023/08/04 05:49:33;;;;;;;3.22;1.95;;;16.80;99.90;;;;;;5097448;27;20514;-53
2023/08/04 05:51:59;;;;;;;6.50;2.22;;;16.90;99.90;;;;;;5113542;27;20035;-57
2023/08/04 05:54:25;;;;;;;5.97;2.20;;;16.90;99.90;;;;;;5098290;27;20064;-56
2023/08/04 05:56:50;;;;;;;4.90;2.50;;;16.90;99.90;;;;;;5096368;28;20046;-56
2023/08/04 05:59:16;;;;;;;7.40;2.58;;;16.90;99.90;;;;;;5079687;27;20042;-57
2023/08/04 06:01:42;;;;;;;4.57;2.28;;;16.90;99.90;;;;;;5097511;27;20189;-55
2023/08/04 06:04:08;;;;;;;5.97;2.10;;;17.00;99.90;;;;;;5092460;27;20028;-53
2023/08/04 06:06:33;;;;;;;4.55;2.20;;;16.90;99.90;;;;;;5078057;27;20039;-56
2023/08/04 06:08:59;;;;;;;7.15;2.50;;;17.00;99.90;;;;;;5105945;27;20027;-55
2023/08/04 06:11:25;;;;;;;3.85;2.08;;;17.10;99.90;;;;;;5108917;27;20074;-57
2023/08/04 06:13:50;;;;;;;5.90;2.40;;;17.20;99.90;;;;;;5095547;27;20320;-57
2023/08/04 06:16:16;;;;;;;5.03;2.00;;;17.30;99.90;;;;;;5095390;27;20104;-58
2023/08/04 06:18:42;;;;;;;6.90;2.38;;;17.40;99.90;;;;;;5110847;27;20080;-57
2023/08/04 06:21:08;;;;;;;7.95;2.40;;;17.40;99.90;;;;;;5099765;28;20040;-56
2023/08/04 06:23:33;;;;;;;7.38;2.22;;;17.40;99.90;;;;;;5114040;27;20036;-57
2023/08/04 06:25:59;;;;;;;3.65;1.92;;;17.40;99.90;;;;;;5102343;27;20041;-57
2023/08/04 06:28:25;;;;;;;5.95;1.88;;;17.50;99.90;;;;;;5086417;28;20044;-56
2023/08/04 06:30:50;;;;;;;6.47;2.08;;;17.40;99.90;;;;;;5116867;27;20462;-56
2023/08/04 06:33:16;;;;;;;7.88;1.90;;;17.40;99.90;;;;;;5095719;28;20038;-56
2023/08/04 06:35:45;;;;;;;4.97;1.33;;;17.40;99.90;;;;;;5118721;27;20031;-57
2023/08/04 06:38:11;;;;;;;4.32;1.90;;;17.30;99.90;;;;;;5111814;27;20634;-55
2023/08/04 06:40:38;;;;;;;3.13;1.35;;;17.50;99.90;;;;;;5081081;27;20039;-57
2023/08/04 06:43:03;;;;;;;4.55;1.50;;;17.60;99.90;;;;;;5117912;27;20038;-56
2023/08/04 06:45:29;;;;;;;6.07;1.30;;;17.60;99.90;;;;;;5113037;27;20084;-56
2023/08/04 06:47:55;;;;;;;4.80;1.80;;;17.60;99.90;;;;;;5115986;27;20032;-55
2023/08/04 06:50:21;;;;;;;5.15;1.60;;;17.50;99.90;;;;;;5096837;27;20035;-58
2023/08/04 06:52:47;;;;;;;7.40;1.98;;;17.50;99.90;;;;;;5099284;27;20099;-57
2023/08/04 06:55:13;;;;;;;6.30;1.52;;;17.40;99.90;;;;;;5098462;27;20038;-58
2023/08/04 06:57:39;;;;;;;5.90;1.40;;;17.40;99.90;;;;;;5098529;27;20133;-56
2023/08/04 07:00:09;;;;;;;8.25;1.73;;;17.30;99.90;;;;;;5075266;27;20413;-56
2023/08/04 07:02:35;;;;;;;3.97;1.58;;;17.40;99.90;;;;;;5112829;27;20036;-56
2023/08/04 07:05:00;;;;;;;2.55;1.40;;;17.50;99.90;;;;;;5106949;27;20123;-55
2023/08/04 07:07:26;;;;;;;7.88;2.08;;;17.50;99.90;;;;;;5091945;27;20138;-57
2023/08/04 07:09:52;;;;;;;4.10;1.55;;;17.50;99.90;;;;;;5106766;27;20122;-57
2023/08/04 07:12:18;;;;;;;7.28;2.20;;;17.50;99.90;;;;;;5112760;27;20057;-55
2023/08/04 07:14:43;;;;;;;5.32;1.67;;;17.50;99.90;;;;;;5093077;27;20039;-55
2023/08/04 07:17:09;;;;;;;3.28;1.40;;;17.50;99.90;;;;;;5088546;27;20518;-54
2023/08/04 07:19:35;;;;;;;5.15;1.75;;;17.40;99.90;;;;;;5108063;27;20422;-56
2023/08/04 07:22:01;;;;;;;6.32;2.08;;;17.30;99.90;;;;;;5080930;27;20035;-60
2023/08/04 07:24:26;;;;;;;5.40;1.90;;;17.20;99.90;;;;;;5092371;27;20043;-57
2023/08/04 07:26:52;;;;;;;3.95;1.75;;;17.20;99.90;;;;;;5116146;27;20035;-55
2023/08/04 07:29:18;;;;;;;4.00;1.77;;;17.30;99.90;;;;;;5106062;27;20031;-56
2023/08/04 07:31:43;;;;;;;4.13;1.92;;;17.30;99.90;;;;;;5118188;27;20039;-56
2023/08/04 07:34:09;;;;;;;6.30;2.25;;;17.40;99.90;;;;;;5095961;27;20027;-59
2023/08/04 07:36:35;;;;;;;7.55;2.00;;;17.40;99.90;;;;;;5108173;27;20032;-56
2023/08/04 07:39:01;;;;;;;6.57;2.08;;;17.50;99.90;;;;;;5108049;27;20033;-57
2023/08/04 07:41:26;;;;;;;7.10;1.90;;;17.40;99.90;;;;;;5111190;27;20487;-57
2023/08/04 07:43:53;;;;;;;6.82;2.08;;;17.50;99.90;;;;;;5107686;27;20126;-57
2023/08/04 07:46:23;;;;;;;6.55;2.20;;;17.50;99.90;;;;;;5095482;27;20552;-59
2023/08/04 07:48:49;;;;;;;6.25;2.40;;;17.50;99.90;;;;;;5112300;27;20036;-57
2023/08/04 07:51:15;;;;;;;8.43;2.30;;;17.60;99.90;;;;;;5091085;27;20031;-56
2023/08/04 07:53:41;;;;;;;5.18;1.95;;;17.50;99.90;;;;;;5094456;27;20630;-57
2023/08/04 07:56:07;;;;;;;4.40;1.60;;;17.60;99.90;;;;;;5115444;27;20035;-57
2023/08/04 07:58:33;;;;;;;5.80;1.92;;;17.70;99.90;;;;;;5098081;27;20050;-58
2023/08/04 08:00:58;;;;;;;7.30;2.00;;;17.70;99.90;;;;;;5111489;27;20379;-58
2023/08/04 08:03:25;;;;;;;7.18;1.90;;;17.90;99.90;;;;;;5095973;27;20044;-54
2023/08/04 08:05:51;;;;;;;9.55;2.17;;;18.00;99.90;;;;;;5115538;27;20047;-56
2023/08/04 08:08:18;;;;;;;4.10;1.48;;;18.10;99.90;;;;;;5089552;27;20032;-62
2023/08/04 08:10:44;;;;;;;7.13;1.92;;;18.20;99.90;;;;;;5107054;27;20067;-57
2023/08/04 08:13:13;;;;;;;4.90;1.58;;;18.20;99.90;;;;;;5093772;27;20107;-58
2023/08/04 08:15:39;;;;;;;6.63;1.80;;;18.30;99.90;;;;;;5109816;27;20039;-58
2023/08/04 08:18:04;;;;;;;9.27;2.00;;;18.30;99.90;;;;;;5086970;28;20046;-56
2023/08/04 08:20:30;;;;;;;2.97;1.25;;;18.30;99.90;;;;;;5094882;27;20058;-58
2023/08/04 08:22:56;;;;;;;5.65;1.35;;;18.30;99.90;;;;;;5093936;28;20036;-56
2023/08/04 08:25:22;;;;;;;7.50;2.47;;;18.30;99.90;;;;;;5112299;27;20096;-57
2023/08/04 08:27:48;;;;;;;3.15;1.05;;;18.30;99.90;;;;;;5107913;27;20100;-58
2023/08/04 08:30:14;;;;;;;4.35;1.38;;;18.30;99.90;;;;;;5111204;27;20039;-58
2023/08/04 08:32:40;;;;;;;4.88;1.40;;;18.40;99.90;;;;;;5082553;28;20035;-56
2023/08/04 08:35:06;;;;;;;3.50;1.52;;;18.40;99.90;;;;;;5091811;28;20051;-56
2023/08/04 08:37:32;;;;;;;5.93;1.75;;;18.50;99.90;;;;;;5093555;28;20039;-59
2023/08/04 08:39:58;;;;;;;5.88;1.45;;;18.50;99.90;;;;;;5114863;28;20062;-57
2023/08/04 08:42:23;;;;;;;7.82;1.63;;;18.50;99.90;;;;;;5088382;28;20403;-56
2023/08/04 08:44:49;;;;;;;5.38;1.55;;;18.60;99.90;;;;;;5088016;28;20040;-58
2023/08/04 08:47:20;;;;;;;3.78;1.20;;;18.50;99.90;;;;;;5111605;28;20044;-56
2023/08/04 08:49:51;;;;;;;5.32;1.65;;;18.50;99.90;;;;;;5090282;27;21418;-61
2023/08/04 08:52:20;;;;;;;4.88;1.10;;;18.40;99.90;;;;;;5116890;28;20673;-58
2023/08/04 08:54:50;;;;;;;4.00;1.63;;;18.30;99.90;;;;;;5113651;28;20042;-55
2023/08/04 08:57:15;;;;;;;6.55;1.60;;;18.30;99.90;;;;;;5109916;27;20050;-59
2023/08/04 08:59:42;;;;;;;10.20;1.92;;;18.40;99.90;;;;;;5109713;27;20088;-59
2023/08/04 09:02:08;;;;;;;3.95;1.63;;;18.50;99.90;;;;;;5109884;27;20035;-59
2023/08/04 09:04:36;;;;;;;10.45;2.15;;;18.70;99.90;;;;;;5107579;27;20117;-59
2023/08/04 09:07:02;;;;;;;9.95;2.22;;;18.80;99.90;;;;;;5107392;28;20039;-59
2023/08/04 09:09:28;;;;;;;7.45;2.15;;;18.80;99.90;;;;;;5110274;28;20409;-60
2023/08/04 09:11:56;;;;;;;7.93;2.38;;;18.80;99.90;;;;;;5075140;28;20079;-58
2023/08/04 09:14:22;;;;;;;8.90;2.65;;;18.80;99.90;;;;;;5108310;28;20055;-58
2023/08/04 09:16:48;;;;;;;8.75;2.33;;;18.90;99.90;;;;;;5082848;28;20035;-57
2023/08/04 09:19:14;;;;;;;8.90;2.45;;;19.00;99.90;;;;;;5108108;28;20035;-58
2023/08/04 09:21:40;;;;;;;10.57;2.80;;;19.00;99.90;;;;;;5108498;27;20599;-59
2023/08/04 09:24:11;;;;;;;9.65;2.53;;;18.80;99.90;;;;;;5113809;28;20051;-54
2023/08/04 09:26:55;;;;;;;7.13;2.47;;;18.90;99.90;;;;;;5087562;28;20601;-58
2023/08/04 09:29:20;;;;;;;7.57;2.85;;;18.90;99.90;;;;;;5110506;28;20036;-58
2023/08/04 09:31:48;;;;;;;11.35;2.78;;;19.00;99.90;;;;;;5112723;27;20118;-57
2023/08/04 09:34:13;;;;;;;7.38;2.20;;;19.00;99.90;;;;;;5109170;28;20031;-55
2023/08/04 09:36:47;;;;;;;7.38;2.42;;;19.00;99.90;;;;;;5111405;28;20035;-57
2023/08/04 09:39:14;;;;;;;5.50;2.40;;;19.10;99.90;;;;;;5106776;28;20604;-54
2023/08/04 09:41:45;;;;;;;8.30;2.13;;;19.10;99.90;;;;;;5105785;28;20554;-59
2023/08/04 09:44:11;;;;;;;5.78;1.75;;;19.10;99.90;;;;;;5092941;28;20059;-64
2023/08/04 09:46:53;;;;;;;6.70;2.17;;;19.10;99.90;;;;;;5097687;27;20039;-59
2023/08/04 09:49:20;;;;;;;8.55;1.98;;;19.10;99.90;;;;;;5111391;27;20032;-57
2023/08/04 09:51:49;;;;;;;5.20;2.13;;;19.30;99.90;;;;;;5110717;27;20050;-55
2023/08/04 09:54:15;;;;;;;8.32;2.55;;;19.50;99.90;;;;;;5116421;27;20472;-55
2023/08/04 09:56:41;;;;;;;6.25;2.33;;;19.60;99.90;;;;;;5112175;27;20027;-56
2023/08/04 09:59:07;;;;;;;5.63;2.08;;;19.80;99.90;;;;;;5118277;27;20076;-60
2023/08/04 10:01:34;;;;;;;6.20;2.05;;;19.70;99.90;;;;;;5098563;27;20035;-59
2023/08/04 10:04:01;;;;;;;4.78;1.90;;;19.90;99.90;;;;;;5098608;27;20039;-55
2023/08/04 10:06:27;;;;;;;8.10;2.42;;;20.00;99.90;;;;;;5109366;27;20558;-58
2023/08/04 10:08:55;;;;;;;5.35;2.22;;;20.10;99.90;;;;;;5109183;27;20032;-61
2023/08/04 10:11:21;;;;;;;6.13;2.50;;;20.10;99.90;;;;;;5108616;27;20299;-59
2023/08/04 10:13:50;;;;;;;7.57;2.22;;;20.30;99.90;;;;;;5109131;27;20047;-59
2023/08/04 10:16:20;;;;;;;9.55;3.03;;;20.30;99.90;;;;;;5112192;27;20042;-61
2023/08/04 10:18:57;;;;;;;5.93;1.98;;;20.00;99.90;;;;;;5110359;27;20043;-65
2023/08/04 10:21:27;;;;;;;6.88;2.95;;;19.80;99.90;;;;;;5091767;27;20383;-63
2023/08/04 10:23:54;;;;;;;9.57;4.50;;;20.10;99.90;;;;;;5113127;27;20062;-58
2023/08/04 10:26:20;;;;;;;10.35;5.43;;;20.30;99.90;;;;;;5115557;27;20114;-59
2023/08/04 10:29:08;;;;;;;11.80;5.45;;;20.20;99.90;;;;;;5080452;27;20066;-58
2023/08/04 10:31:46;;;;;;;9.32;4.53;;;20.30;99.90;;;;;;5080069;27;20722;-59
2023/08/04 10:34:29;;;;;;;6.47;3.10;;;20.30;99.90;;;;;;5116506;27;20522;-60
2023/08/04 10:37:04;;;;;;;8.07;1.88;;;20.50;99.90;;;;;;5081751;27;20055;-57
2023/08/04 10:39:34;;;;;;;4.07;1.77;;;20.60;99.90;;;;;;5117109;27;20112;-59
2023/08/04 10:42:04;;;;;;;6.25;1.77;;;20.50;99.90;;;;;;5097993;27;20035;-59
2023/08/04 10:44:47;;;;;;;6.80;1.83;;;20.30;99.90;;;;;;5114901;27;20039;-57
2023/08/04 10:47:13;;;;;;;4.95;1.88;;;20.50;99.90;;;;;;5081399;27;20134;-58
2023/08/04 10:49:39;;;;;;;5.05;1.73;;;20.60;99.90;;;;;;5111580;27;20122;-57
2023/08/04 10:52:05;;;;;;;3.72;1.40;;;20.90;99.90;;;;;;5113114;27;20046;-57
2023/08/04 10:54:31;;;;;;;7.47;2.00;;;21.00;99.90;;;;;;5111317;27;20874;-60
2023/08/04 10:56:56;;;;;;;3.85;1.40;;;20.80;99.90;;;;;;5090150;28;20149;-57
2023/08/04 10:59:22;;;;;;;3.67;1.40;;;20.60;99.90;;;;;;5097472;27;20032;-59
2023/08/04 11:01:48;;;;;;;4.57;1.48;;;20.50;99.90;;;;;;5116185;27;20519;-59
2023/08/04 11:04:18;;;;;;;4.60;1.58;;;20.70;99.90;;;;;;5099922;27;20038;-57
2023/08/04 11:06:45;;;;;;;4.13;1.67;;;20.90;99.90;;;;;;5095482;27;20379;-60
2023/08/04 11:09:11;;;;;;;6.88;1.73;;;21.20;99.90;;;;;;5089115;27;20043;-61
2023/08/04 11:11:37;;;;;;;4.15;1.80;;;21.30;99.90;;;;;;5095938;27;21741;-61
2023/08/04 11:14:07;;;;;;;6.05;2.17;;;21.10;99.90;;;;;;5089553;27;20106;-60
2023/08/04 11:16:36;;;;;;;5.50;1.60;;;21.10;99.90;;;;;;5111500;27;20043;-57
2023/08/04 11:19:07;;;;;;;5.78;1.65;;;20.70;99.90;;;;;;5108837;27;20665;-61
2023/08/04 11:21:33;;;;;;;7.05;2.22;;;20.40;99.90;;;;;;5095949;27;20050;-59
2023/08/04 11:23:59;;;;;;;6.82;2.00;;;20.50;99.90;;;;;;5094183;27;20043;-60
2023/08/04 11:26:25;;;;;;;4.13;1.50;;;20.20;99.90;;;;;;5113805;27;20031;-58
2023/08/04 11:28:55;;;;;;;3.80;1.50;;;20.30;99.90;;;;;;5112925;27;20489;-62
2023/08/04 11:31:21;;;;;;;3.65;1.42;;;20.60;99.90;;;;;;5120569;27;20071;-59
2023/08/04 11:33:47;;;;;;;3.35;1.20;;;20.70;99.90;;;;;;5113081;27;20040;-60
2023/08/04 11:36:13;;;;;;;6.43;1.40;;;20.60;99.90;;;;;;5122913;27;20035;-60
2023/08/04 11:38:38;;;;;;;5.88;1.70;;;20.60;99.90;;;;;;5116114;27;20881;-61
2023/08/04 11:41:08;;;;;;;6.47;1.85;;;20.70;99.90;;;;;;5113514;27;20048;-61
2023/08/04 11:43:34;;;;;;;6.55;2.03;;;20.70;99.90;;;;;;5112757;27;20034;-60
2023/08/04 11:46:03;;;;;;;5.25;1.70;;;20.80;99.90;;;;;;5101814;27;20070;-59
2023/08/04 11:48:29;;;;;;;7.75;2.08;;;20.90;99.90;;;;;;5122341;27;20043;-59
2023/08/04 11:50:56;;;;;;;5.82;1.88;;;20.80;99.90;;;;;;5097495;27;20102;-58
2023/08/04 11:53:22;;;;;;;5.40;1.60;;;20.40;99.90;;;;;;5107072;27;20043;-61
2023/08/04 11:55:55;;;;;;;7.70;2.00;;;20.20;99.90;;;;;;5115272;27;20035;-61
2023/08/04 11:58:43;;;;;;;8.65;2.13;;;20.10;99.90;;;;;;5113253;27;20038;-61
2023/08/04 12:01:25;;;;;;;8.18;2.13;;;20.00;99.90;;;;;;5115726;27;20036;-61
2023/08/04 12:03:51;;;;;;;5.50;2.65;;;20.00;99.90;;;;;;5095079;27;20109;-59
2023/08/04 12:06:21;;;;;;;7.65;2.20;;;19.90;99.90;;;;;;5111467;27;20946;-60
2023/08/04 12:08:51;;;;;;;6.55;2.90;;;19.90;99.90;;;;;;5080266;27;20070;-61
2023/08/04 12:11:18;;;;;;;8.07;2.13;;;19.80;99.90;;;;;;5097660;27;20043;-61
2023/08/04 12:13:44;;;;;;;8.48;2.60;;;19.70;99.90;;;;;;5117788;27;20043;-59
2023/08/04 12:16:12;;;;;;;6.70;2.42;;;19.60;99.90;;;;;;5115879;27;20536;-60
2023/08/04 12:18:39;;;;;;;7.30;2.35;;;19.60;99.90;;;;;;5116798;27;20039;-60
2023/08/04 12:21:05;;;;;;;5.22;2.10;;;19.70;99.90;;;;;;5111758;27;20081;-60
2023/08/04 12:23:31;;;;;;;9.43;2.70;;;19.80;99.90;;;;;;5097299;27;20042;-63
2023/08/04 12:25:57;;;;;;;7.15;2.35;;;20.00;99.90;;;;;;5118661;27;20046;-63
2023/08/04 12:28:23;;;;;;;6.20;2.38;;;20.00;99.90;;;;;;5109520;27;20433;-60
2023/08/04 12:30:50;;;;;;;7.70;2.30;;;20.10;99.90;;;;;;5109083;27;20043;-59
2023/08/04 12:33:16;;;;;;;6.65;2.58;;;20.10;99.90;;;;;;5117688;27;20039;-61
2023/08/04 12:35:41;;;;;;;8.57;2.70;;;20.20;99.90;;;;;;5092478;27;20405;-61
2023/08/04 12:38:07;;;;;;;9.43;2.92;;;20.20;99.90;;;;;;5090164;28;20628;-57
2023/08/04 12:40:34;;;;;;;5.90;2.17;;;20.20;99.90;;;;;;5109123;28;20035;-61
2023/08/04 12:43:00;;;;;;;6.53;2.10;;;20.20;99.90;;;;;;5086785;28;20081;-63
2023/08/04 12:45:26;;;;;;;9.40;2.45;;;20.30;99.90;;;;;;5105152;27;20039;-59